Chem Orion — V7GZ9 — position and weather

sailwx.info

Track history (hours):
 
Tides and Currents Weather Stations Pressure Air Temp Water Temp Dewpoint Dewpoint Depression Visibility Wind Speed Wind Dir Waves Ship Positions

Chem Orion

Last reported at 2017-Apr-05 05:19 UTC. Time now 2017-May-01 04:05 UTC.
Position S 24°11' W 046°14'.
Warning: this ship's position is 25 days out of date.

Length 125 m; draft 5.1 m.

Type: Ship (hazmat cat D). MMSI: 538002197.

Date/timePositionNaut miles runAvg speedWind from/ knotsBaromVisibWave heightAir tempDewpointWater temp
2017-Apr-05 05:19S 24°11' W 046°14'310.6
2017-Apr-05 05:00S 24°10' W 046°17'510.4
2017-Apr-05 04:31S 24°07' W 046°22'5 9.1
2017-Apr-05 04:00S 24°02' W 046°21'4 7.4
2017-Apr-05 03:30S 23°60' W 046°18'  
2017-Mar-31 02:33S 23°56' W 046°19'6 6.3
2017-Mar-31 01:34S 24°02' W 046°21'8 8.2
2017-Mar-31 00:33S 24°10' W 046°18'0 0.2
2017-Mar-30 23:20S 24°10' W 046°18'0 0.0
2017-Mar-30 22:32S 24°10' W 046°18'0 0.1
2017-Mar-30 21:29S 24°10' W 046°17'0 0.0
2017-Mar-30 20:29S 24°10' W 046°17'0 0.0
2017-Mar-30 19:32S 24°10' W 046°17'0 0.0
2017-Mar-30 18:32S 24°10' W 046°17'0 0.0
2017-Mar-30 17:32S 24°10' W 046°17'0 0.0
2017-Mar-30 16:32S 24°10' W 046°17'0 0.0
2017-Mar-30 15:32S 24°10' W 046°17'0 0.0
2017-Mar-30 14:32S 24°10' W 046°17'0 0.1
2017-Mar-30 13:32S 24°10' W 046°17'0 0.0
2017-Mar-30 12:32S 24°10' W 046°17'0 0.0
2017-Mar-30 11:32S 24°10' W 046°17'0 0.0
2017-Mar-30 10:32S 24°10' W 046°17'0 0.0
2017-Mar-30 09:32S 24°10' W 046°17'0 0.1
2017-Mar-30 08:33S 24°10' W 046°17'7 6.7
2017-Mar-30 07:33S 24°10' W 046°10'1312.6
2017-Mar-30 06:33S 24°11' W 045°56'  
Track history (hours):
 
Tides and Currents Weather Stations Pressure Air Temp Water Temp Dewpoint Dewpoint Depression Visibility Wind Speed Wind Dir Waves Ship Positions

Chem Orion

Last reported at 2017-Apr-05 05:19 UTC. Time now 2017-May-01 04:05 UTC.
Position S 24°11' W 046°14'.
Warning: this ship's position is 25 days out of date.

Length 125 m; draft 5.1 m.

Type: Ship (hazmat cat D). MMSI: 538002197.

Date/timePositionNaut miles runAvg speedWind from/ knotsBaromVisibWave heightAir tempDewpointWater temp
2017-Apr-05 05:19S 24°11' W 046°14'310.6
2017-Apr-05 05:00S 24°10' W 046°17'510.4
2017-Apr-05 04:31S 24°07' W 046°22'5 9.1
2017-Apr-05 04:00S 24°02' W 046°21'4 7.4
2017-Apr-05 03:30S 23°60' W 046°18'  
2017-Mar-31 02:33S 23°56' W 046°19'6 6.3
2017-Mar-31 01:34S 24°02' W 046°21'8 8.2
2017-Mar-31 00:33S 24°10' W 046°18'0 0.2
2017-Mar-30 23:20S 24°10' W 046°18'0 0.0
2017-Mar-30 22:32S 24°10' W 046°18'0 0.1
2017-Mar-30 21:29S 24°10' W 046°17'0 0.0
2017-Mar-30 20:29S 24°10' W 046°17'0 0.0
2017-Mar-30 19:32S 24°10' W 046°17'0 0.0
2017-Mar-30 18:32S 24°10' W 046°17'0 0.0
2017-Mar-30 17:32S 24°10' W 046°17'0 0.0
2017-Mar-30 16:32S 24°10' W 046°17'0 0.0
2017-Mar-30 15:32S 24°10' W 046°17'0 0.0
2017-Mar-30 14:32S 24°10' W 046°17'0 0.1
2017-Mar-30 13:32S 24°10' W 046°17'0 0.0
2017-Mar-30 12:32S 24°10' W 046°17'0 0.0
2017-Mar-30 11:32S 24°10' W 046°17'0 0.0
2017-Mar-30 10:32S 24°10' W 046°17'0 0.0
2017-Mar-30 09:32S 24°10' W 046°17'0 0.1
2017-Mar-30 08:33S 24°10' W 046°17'7 6.7
2017-Mar-30 07:33S 24°10' W 046°10'1312.6
2017-Mar-30 06:33S 24°11' W 045°56'  

Dump ship's entire track history